sensor_id;sensor_type;location;lat;lon;timestamp;pressure;altitude;pressure_sealevel;temperature;humidity
62800;BME280;48842;51.046;13.796;2023-08-20T00:01:23;100570.50;;;27.97;52.72
62800;BME280;48842;51.046;13.796;2023-08-20T00:03:50;100562.59;;;27.94;52.93
62800;BME280;48842;51.046;13.796;2023-08-20T00:06:16;100556.44;;;27.92;52.99
62800;BME280;48842;51.046;13.796;2023-08-20T00:08:41;100553.75;;;27.92;52.96
62800;BME280;48842;51.046;13.796;2023-08-20T00:11:06;100552.03;;;27.91;52.92
62800;BME280;48842;51.046;13.796;2023-08-20T00:13:32;100549.31;;;27.91;52.66
62800;BME280;48842;51.046;13.796;2023-08-20T00:15:58;100553.75;;;27.92;52.75
62800;BME280;48842;51.046;13.796;2023-08-20T00:18:23;100551.06;;;27.92;52.54
62800;BME280;48842;51.046;13.796;2023-08-20T00:20:49;100548.38;;;27.92;52.58
62800;BME280;48842;51.046;13.796;2023-08-20T00:23:14;100551.06;;;27.92;52.58
62800;BME280;48842;51.046;13.796;2023-08-20T00:25:40;100550.97;;;27.94;52.67
62800;BME280;48842;51.046;13.796;2023-08-20T00:28:05;100549.13;;;27.94;52.70
62800;BME280;48842;51.046;13.796;2023-08-20T00:30:31;100547.19;;;27.96;52.47
62800;BME280;48842;51.046;13.796;2023-08-20T00:32:56;100549.84;;;27.98;52.05
62800;BME280;48842;51.046;13.796;2023-08-20T00:35:21;100553.44;;;27.97;52.03
62800;BME280;48842;51.046;13.796;2023-08-20T00:37:47;100557.03;;;27.97;52.00
62800;BME280;48842;51.046;13.796;2023-08-20T00:40:12;100553.28;;;28.00;52.15
62800;BME280;48842;51.046;13.796;2023-08-20T00:42:38;100562.22;;;28.00;51.91
62800;BME280;48842;51.046;13.796;2023-08-20T00:45:04;100555.13;;;27.99;51.94
62800;BME280;48842;51.046;13.796;2023-08-20T00:47:30;100551.53;;;27.99;51.86
62800;BME280;48842;51.046;13.796;2023-08-20T00:49:56;100549.84;;;27.98;51.82
62800;BME280;48842;51.046;13.796;2023-08-20T00:52:22;100550.69;;;27.98;51.68
62800;BME280;48842;51.046;13.796;2023-08-20T00:54:48;100552.56;;;27.96;51.90
62800;BME280;48842;51.046;13.796;2023-08-20T00:57:14;100554.34;;;27.97;51.79
62800;BME280;48842;51.046;13.796;2023-08-20T00:59:41;100550.69;;;27.98;51.59
62800;BME280;48842;51.046;13.796;2023-08-20T01:02:07;100557.94;;;27.96;51.73
62800;BME280;48842;51.046;13.796;2023-08-20T01:04:32;100554.50;;;27.94;51.79
62800;BME280;48842;51.046;13.796;2023-08-20T01:09:55;100556.44;;;27.92;51.59
62800;BME280;48842;51.046;13.796;2023-08-20T01:12:22;100555.47;;;27.93;51.77
62800;BME280;48842;51.046;13.796;2023-08-20T01:14:48;100560.19;;;27.90;51.85
62800;BME280;48842;51.046;13.796;2023-08-20T01:17:13;100565.69;;;27.88;51.75
62800;BME280;48842;51.046;13.796;2023-08-20T01:19:38;100567.50;;;27.87;51.82
62800;BME280;48842;51.046;13.796;2023-08-20T01:30:50;100584.63;;;27.86;51.75
62800;BME280;48842;51.046;13.796;2023-08-20T01:33:17;100589.13;;;27.86;51.55
62800;BME280;48842;51.046;13.796;2023-08-20T01:35:42;100593.69;;;27.85;51.82
62800;BME280;48842;51.046;13.796;2023-08-20T01:38:07;100588.28;;;27.85;51.86
62800;BME280;48842;51.046;13.796;2023-08-20T01:40:33;100598.31;;;27.83;51.87
62800;BME280;48842;51.046;13.796;2023-08-20T01:42:58;100596.47;;;27.84;51.72
62800;BME280;48842;51.046;13.796;2023-08-20T01:45:24;100608.19;;;27.83;51.79
62800;BME280;48842;51.046;13.796;2023-08-20T01:47:49;100612.81;;;27.81;51.66
62800;BME280;48842;51.046;13.796;2023-08-20T01:50:15;100618.22;;;27.81;51.49
62800;BME280;48842;51.046;13.796;2023-08-20T01:52:40;100618.22;;;27.81;51.41
62800;BME280;48842;51.046;13.796;2023-08-20T01:55:06;100614.56;;;27.82;51.57
62800;BME280;48842;51.046;13.796;2023-08-20T01:57:31;100613.69;;;27.81;51.60
62800;BME280;48842;51.046;13.796;2023-08-20T01:59:57;100614.78;;;27.79;51.70
62800;BME280;48842;51.046;13.796;2023-08-20T02:02:23;100613.88;;;27.78;51.80
62800;BME280;48842;51.046;13.796;2023-08-20T02:04:48;100611.28;;;27.77;52.10
62800;BME280;48842;51.046;13.796;2023-08-20T02:07:13;100612.13;;;27.77;52.18
62800;BME280;48842;51.046;13.796;2023-08-20T02:09:38;100619.38;;;27.77;52.04
62800;BME280;48842;51.046;13.796;2023-08-20T02:12:04;100616.66;;;27.77;52.16
62800;BME280;48842;51.046;13.796;2023-08-20T02:14:29;100618.59;;;27.75;52.14
62800;BME280;48842;51.046;13.796;2023-08-20T02:16:58;100612.34;;;27.74;51.80
62800;BME280;48842;51.046;13.796;2023-08-20T02:19:23;100615.91;;;27.75;52.01
62800;BME280;48842;51.046;13.796;2023-08-20T02:21:49;100620.50;;;27.73;52.03
62800;BME280;48842;51.046;13.796;2023-08-20T02:24:14;100621.50;;;27.72;52.02
62800;BME280;48842;51.046;13.796;2023-08-20T02:26:40;100627.94;;;27.69;52.40
62800;BME280;48842;51.046;13.796;2023-08-20T02:29:05;100629.75;;;27.68;52.29
62800;BME280;48842;51.046;13.796;2023-08-20T02:31:30;100626.09;;;27.69;52.32
62800;BME280;48842;51.046;13.796;2023-08-20T02:33:56;100636.88;;;27.69;52.66
62800;BME280;48842;51.046;13.796;2023-08-20T02:36:21;100631.59;;;27.68;52.71
62800;BME280;48842;51.046;13.796;2023-08-20T02:38:46;100638.03;;;27.65;52.67
62800;BME280;48842;51.046;13.796;2023-08-20T02:41:11;100635.31;;;27.65;52.88
62800;BME280;48842;51.046;13.796;2023-08-20T02:43:37;100636.22;;;27.66;53.00
62800;BME280;48842;51.046;13.796;2023-08-20T02:46:03;100636.31;;;27.64;52.89
62800;BME280;48842;51.046;13.796;2023-08-20T02:48:29;100641.69;;;27.64;53.10
62800;BME280;48842;51.046;13.796;2023-08-20T02:50:55;100632.84;;;27.62;52.94
62800;BME280;48842;51.046;13.796;2023-08-20T02:53:21;100631.97;;;27.62;52.83
62800;BME280;48842;51.046;13.796;2023-08-20T02:55:47;100633.03;;;27.59;53.30
62800;BME280;48842;51.046;13.796;2023-08-20T02:58:12;100628.78;;;27.55;53.38
62800;BME280;48842;51.046;13.796;2023-08-20T03:00:39;100621.88;;;27.51;53.35
62800;BME280;48842;51.046;13.796;2023-08-20T03:03:04;100621.22;;;27.47;53.54
62800;BME280;48842;51.046;13.796;2023-08-20T03:05:32;100626.69;;;27.46;53.66
62800;BME280;48842;51.046;13.796;2023-08-20T03:07:58;100624.94;;;27.45;53.78
62800;BME280;48842;51.046;13.796;2023-08-20T03:10:23;100635.81;;;27.43;53.78
62800;BME280;48842;51.046;13.796;2023-08-20T03:12:49;100635.81;;;27.43;53.89
62800;BME280;48842;51.046;13.796;2023-08-20T03:15:14;100638.59;;;27.42;53.94
62800;BME280;48842;51.046;13.796;2023-08-20T03:17:39;100643.13;;;27.41;54.03
62800;BME280;48842;51.046;13.796;2023-08-20T03:20:05;100646.78;;;27.40;54.13
62800;BME280;48842;51.046;13.796;2023-08-20T03:22:32;100640.53;;;27.40;54.05
62800;BME280;48842;51.046;13.796;2023-08-20T03:24:57;100641.38;;;27.40;54.03
62800;BME280;48842;51.046;13.796;2023-08-20T03:27:22;100642.34;;;27.39;54.08
62800;BME280;48842;51.046;13.796;2023-08-20T03:29:47;100642.44;;;27.38;53.93
62800;BME280;48842;51.046;13.796;2023-08-20T03:32:14;100644.28;;;27.37;53.88
62800;BME280;48842;51.046;13.796;2023-08-20T03:34:39;100643.41;;;27.37;54.03
62800;BME280;48842;51.046;13.796;2023-08-20T03:37:04;100648.81;;;27.37;54.15
62800;BME280;48842;51.046;13.796;2023-08-20T03:39:30;100650.59;;;27.36;54.16
62800;BME280;48842;51.046;13.796;2023-08-20T03:41:56;100642.53;;;27.36;53.96
62800;BME280;48842;51.046;13.796;2023-08-20T03:44:22;100646.13;;;27.37;54.16
62800;BME280;48842;51.046;13.796;2023-08-20T03:46:48;100654.19;;;27.37;54.12
62800;BME280;48842;51.046;13.796;2023-08-20T03:49:13;100650.50;;;27.38;54.29
62800;BME280;48842;51.046;13.796;2023-08-20T03:51:38;100660.50;;;27.36;54.00
62800;BME280;48842;51.046;13.796;2023-08-20T03:54:04;100663.22;;;27.36;54.22
62800;BME280;48842;51.046;13.796;2023-08-20T03:56:29;100673.19;;;27.33;54.20
62800;BME280;48842;51.046;13.796;2023-08-20T03:58:55;100680.38;;;27.33;54.33
62800;BME280;48842;51.046;13.796;2023-08-20T04:01:20;100676.75;;;27.34;54.25
62800;BME280;48842;51.046;13.796;2023-08-20T04:03:46;100683.94;;;27.33;54.37
62800;BME280;48842;51.046;13.796;2023-08-20T04:06:12;100681.31;;;27.32;54.44
62800;BME280;48842;51.046;13.796;2023-08-20T04:08:37;100679.59;;;27.31;54.47
62800;BME280;48842;51.046;13.796;2023-08-20T04:11:02;100684.09;;;27.30;54.50
62800;BME280;48842;51.046;13.796;2023-08-20T04:13:28;100687.78;;;27.29;54.43
62800;BME280;48842;51.046;13.796;2023-08-20T04:15:54;100681.50;;;27.29;54.36
62800;BME280;48842;51.046;13.796;2023-08-20T04:18:19;100695.84;;;27.29;54.48
62800;BME280;48842;51.046;13.796;2023-08-20T04:20:44;100688.72;;;27.28;54.22
62800;BME280;48842;51.046;13.796;2023-08-20T04:23:11;100697.75;;;27.27;54.61
62800;BME280;48842;51.046;13.796;2023-08-20T04:25:37;100697.06;;;27.24;54.85
62800;BME280;48842;51.046;13.796;2023-08-20T04:28:02;100703.31;;;27.24;54.96
62800;BME280;48842;51.046;13.796;2023-08-20T04:30:27;100709.66;;;27.23;55.04
62800;BME280;48842;51.046;13.796;2023-08-20T04:32:52;100706.94;;;27.23;54.93
62800;BME280;48842;51.046;13.796;2023-08-20T04:35:18;100711.47;;;27.23;55.10
62800;BME280;48842;51.046;13.796;2023-08-20T04:37:44;100712.34;;;27.23;55.24
62800;BME280;48842;51.046;13.796;2023-08-20T04:40:10;100722.16;;;27.24;55.35
62800;BME280;48842;51.046;13.796;2023-08-20T04:42:35;100724.06;;;27.22;55.17
62800;BME280;48842;51.046;13.796;2023-08-20T04:45:00;100721.47;;;27.21;55.62
62800;BME280;48842;51.046;13.796;2023-08-20T04:47:26;100721.47;;;27.21;55.50
62800;BME280;48842;51.046;13.796;2023-08-20T04:49:51;100720.59;;;27.20;55.52
62800;BME280;48842;51.046;13.796;2023-08-20T04:52:16;100731.34;;;27.20;55.39
62800;BME280;48842;51.046;13.796;2023-08-20T04:54:41;100730.50;;;27.20;55.66
62800;BME280;48842;51.046;13.796;2023-08-20T04:57:07;100730.59;;;27.18;55.63
62800;BME280;48842;51.046;13.796;2023-08-20T04:59:32;100732.44;;;27.17;55.63
62800;BME280;48842;51.046;13.796;2023-08-20T05:01:57;100730.59;;;27.18;55.60
62800;BME280;48842;51.046;13.796;2023-08-20T05:04:23;100731.34;;;27.20;55.72
62800;BME280;48842;51.046;13.796;2023-08-20T05:06:48;100734.84;;;27.22;55.97
62800;BME280;48842;51.046;13.796;2023-08-20T05:09:14;100733.00;;;27.23;56.17
62800;BME280;48842;51.046;13.796;2023-08-20T05:11:41;100746.38;;;27.24;56.18
62800;BME280;48842;51.046;13.796;2023-08-20T05:14:07;100740.03;;;27.25;55.93
62800;BME280;48842;51.046;13.796;2023-08-20T05:16:32;100744.53;;;27.25;56.00
62800;BME280;48842;51.046;13.796;2023-08-20T05:18:57;100746.19;;;27.27;55.96
62800;BME280;48842;51.046;13.796;2023-08-20T05:21:22;100754.06;;;27.30;56.06
62800;BME280;48842;51.046;13.796;2023-08-20T05:23:48;100755.66;;;27.34;56.01
62800;BME280;48842;51.046;13.796;2023-08-20T05:26:13;100745.59;;;27.38;55.76
62800;BME280;48842;51.046;13.796;2023-08-20T05:28:39;100745.41;;;27.41;55.87
62800;BME280;48842;51.046;13.796;2023-08-20T05:31:05;100751.44;;;27.45;55.78
62800;BME280;48842;51.046;13.796;2023-08-20T05:33:30;100750.41;;;27.47;55.75
62800;BME280;48842;51.046;13.796;2023-08-20T05:35:55;100757.44;;;27.50;55.73
62800;BME280;48842;51.046;13.796;2023-08-20T05:38:20;100767.91;;;27.55;55.71
62800;BME280;48842;51.046;13.796;2023-08-20T05:40:46;100771.28;;;27.58;55.67
62800;BME280;48842;51.046;13.796;2023-08-20T05:43:11;100769.19;;;27.63;55.33
62800;BME280;48842;51.046;13.796;2023-08-20T05:45:36;100775.13;;;27.68;55.32
62800;BME280;48842;51.046;13.796;2023-08-20T05:48:01;100765.91;;;27.73;55.32
62800;BME280;48842;51.046;13.796;2023-08-20T05:50:27;100770.94;;;27.79;55.01
62800;BME280;48842;51.046;13.796;2023-08-20T05:52:52;100780.44;;;27.84;55.15
62800;BME280;48842;51.046;13.796;2023-08-20T05:55:18;100784.59;;;27.90;55.07
62800;BME280;48842;51.046;13.796;2023-08-20T05:57:43;100775.38;;;27.94;54.80
62800;BME280;48842;51.046;13.796;2023-08-20T06:00:09;100773.31;;;27.99;54.72
62800;BME280;48842;51.046;13.796;2023-08-20T06:02:35;100786.56;;;28.02;54.79
62800;BME280;48842;51.046;13.796;2023-08-20T06:05:03;100788.13;;;28.07;54.74
62800;BME280;48842;51.046;13.796;2023-08-20T06:07:30;100788.78;;;28.10;54.92
62800;BME280;48842;51.046;13.796;2023-08-20T06:09:56;100787.63;;;28.14;54.62
62800;BME280;48842;51.046;13.796;2023-08-20T06:12:22;100789.38;;;28.15;54.49
62800;BME280;48842;51.046;13.796;2023-08-20T06:14:47;100785.03;;;28.13;54.68
62800;BME280;48842;51.046;13.796;2023-08-20T06:17:12;100783.28;;;28.12;54.70
62800;BME280;48842;51.046;13.796;2023-08-20T06:19:38;100782.44;;;28.11;54.62
62800;BME280;48842;51.046;13.796;2023-08-20T06:22:04;100792.13;;;28.14;54.76
62800;BME280;48842;51.046;13.796;2023-08-20T06:24:29;100793.03;;;28.14;54.82
62800;BME280;48842;51.046;13.796;2023-08-20T06:26:55;100793.88;;;28.15;54.91
62800;BME280;48842;51.046;13.796;2023-08-20T06:29:20;100795.63;;;28.16;54.87
62800;BME280;48842;51.046;13.796;2023-08-20T06:31:48;100794.38;;;28.21;54.90
62800;BME280;48842;51.046;13.796;2023-08-20T06:34:14;100797.81;;;28.24;54.68
62800;BME280;48842;51.046;13.796;2023-08-20T06:36:39;100786.94;;;28.25;54.56
62800;BME280;48842;51.046;13.796;2023-08-20T06:39:05;100791.19;;;28.29;54.67
62800;BME280;48842;51.046;13.796;2023-08-20T06:41:30;100790.22;;;28.30;54.91
62800;BME280;48842;51.046;13.796;2023-08-20T06:43:56;100784.84;;;28.30;54.67
62800;BME280;48842;51.046;13.796;2023-08-20T06:46:22;100792.94;;;28.30;54.62
62800;BME280;48842;51.046;13.796;2023-08-20T06:48:47;100791.09;;;28.31;54.68
62800;BME280;48842;51.046;13.796;2023-08-20T06:51:19;100791.09;;;28.31;54.53
62800;BME280;48842;51.046;13.796;2023-08-20T06:53:44;100795.41;;;28.33;54.55
62800;BME280;48842;51.046;13.796;2023-08-20T06:56:10;100791.88;;;28.33;54.48
62800;BME280;48842;51.046;13.796;2023-08-20T06:58:40;100796.38;;;28.32;54.53
62800;BME280;48842;51.046;13.796;2023-08-20T07:01:06;100800.91;;;28.32;54.66
62800;BME280;48842;51.046;13.796;2023-08-20T07:03:38;100806.41;;;28.30;54.71
62800;BME280;48842;51.046;13.796;2023-08-20T07:06:05;100814.47;;;28.30;54.92
62800;BME280;48842;51.046;13.796;2023-08-20T07:08:31;100813.69;;;28.28;54.57
62800;BME280;48842;51.046;13.796;2023-08-20T07:10:56;100814.47;;;28.30;54.80
62800;BME280;48842;51.046;13.796;2023-08-20T07:13:22;100814.28;;;28.33;54.45
62800;BME280;48842;51.046;13.796;2023-08-20T07:15:48;100819.47;;;28.36;54.91
62800;BME280;48842;51.046;13.796;2023-08-20T07:18:15;100820.34;;;28.37;54.92
62800;BME280;48842;51.046;13.796;2023-08-20T07:20:44;100821.31;;;28.36;55.10
62800;BME280;48842;51.046;13.796;2023-08-20T07:23:10;100828.63;;;28.34;54.90
62800;BME280;48842;51.046;13.796;2023-08-20T07:25:36;100839.50;;;28.32;55.11
62800;BME280;48842;51.046;13.796;2023-08-20T07:28:06;100828.91;;;28.29;55.13
62800;BME280;48842;51.046;13.796;2023-08-20T07:30:31;100836.81;;;28.32;55.21
62800;BME280;48842;51.046;13.796;2023-08-20T07:32:57;100839.31;;;28.35;54.93
62800;BME280;48842;51.046;13.796;2023-08-20T07:35:23;100835.66;;;28.36;55.02
62800;BME280;48842;51.046;13.796;2023-08-20T07:37:56;100837.50;;;28.36;55.08
62800;BME280;48842;51.046;13.796;2023-08-20T07:40:21;100838.34;;;28.36;54.82
62800;BME280;48842;51.046;13.796;2023-08-20T07:42:47;100832.00;;;28.37;54.82
62800;BME280;48842;51.046;13.796;2023-08-20T07:45:12;100841.44;;;28.45;54.83
62800;BME280;48842;51.046;13.796;2023-08-20T07:47:38;100835.75;;;28.49;54.75
62800;BME280;48842;51.046;13.796;2023-08-20T07:50:05;100834.69;;;28.52;54.75
62800;BME280;48842;51.046;13.796;2023-08-20T07:52:31;100841.59;;;28.56;54.48
62800;BME280;48842;51.046;13.796;2023-08-20T07:54:56;100844.81;;;28.63;54.55
62800;BME280;48842;51.046;13.796;2023-08-20T07:57:21;100831.72;;;28.71;54.28
62800;BME280;48842;51.046;13.796;2023-08-20T07:59:48;100832.16;;;28.78;53.77
62800;BME280;48842;51.046;13.796;2023-08-20T08:02:13;100841.69;;;28.83;54.04
62800;BME280;48842;51.046;13.796;2023-08-20T08:04:39;100832.53;;;28.86;53.44
62800;BME280;48842;51.046;13.796;2023-08-20T08:07:04;100833.31;;;28.88;53.34
62800;BME280;48842;51.046;13.796;2023-08-20T08:09:31;100845.53;;;28.94;53.31
62800;BME280;48842;51.046;13.796;2023-08-20T08:11:58;100840.59;;;29.00;53.48
62800;BME280;48842;51.046;13.796;2023-08-20T08:14:24;100849.81;;;29.11;53.05
62800;BME280;48842;51.046;13.796;2023-08-20T08:16:49;100840.34;;;29.18;52.97
62800;BME280;48842;51.046;13.796;2023-08-20T08:19:15;100843.81;;;29.20;52.73
62800;BME280;48842;51.046;13.796;2023-08-20T08:21:42;100851.06;;;29.19;52.66
62800;BME280;48842;51.046;13.796;2023-08-20T08:24:08;100860.00;;;29.20;52.76
62800;BME280;48842;51.046;13.796;2023-08-20T08:26:34;100861.16;;;29.16;52.78
62800;BME280;48842;51.046;13.796;2023-08-20T08:29:00;100855.13;;;29.12;52.90
62800;BME280;48842;51.046;13.796;2023-08-20T08:31:26;100862.63;;;29.07;53.04
62800;BME280;48842;51.046;13.796;2023-08-20T08:33:51;100865.44;;;29.05;53.37
62800;BME280;48842;51.046;13.796;2023-08-20T08:36:16;100868.91;;;29.07;53.03
62800;BME280;48842;51.046;13.796;2023-08-20T08:38:43;100865.03;;;29.12;53.13
62800;BME280;48842;51.046;13.796;2023-08-20T08:41:12;100873.91;;;29.14;53.37
62800;BME280;48842;51.046;13.796;2023-08-20T08:43:38;100873.59;;;29.18;52.99
62800;BME280;48842;51.046;13.796;2023-08-20T08:46:15;100864.44;;;29.21;53.13
62800;BME280;48842;51.046;13.796;2023-08-20T08:48:45;100872.06;;;29.29;52.73
62800;BME280;48842;51.046;13.796;2023-08-20T08:51:13;100873.28;;;29.37;52.62
62800;BME280;48842;51.046;13.796;2023-08-20T08:53:39;100872.75;;;29.45;52.62
62800;BME280;48842;51.046;13.796;2023-08-20T08:56:07;100869.78;;;29.50;52.10
62800;BME280;48842;51.046;13.796;2023-08-20T08:58:32;100871.47;;;29.51;52.29
62800;BME280;48842;51.046;13.796;2023-08-20T09:00:58;100867.94;;;29.50;52.15
62800;BME280;48842;51.046;13.796;2023-08-20T09:03:23;100863.28;;;29.52;52.27
62800;BME280;48842;51.046;13.796;2023-08-20T09:05:54;100861.47;;;29.53;52.07
62800;BME280;48842;51.046;13.796;2023-08-20T09:08:20;100865.97;;;29.52;52.11
62800;BME280;48842;51.046;13.796;2023-08-20T09:10:46;100872.25;;;29.53;52.19
62800;BME280;48842;51.046;13.796;2023-08-20T09:13:11;100862.88;;;29.58;52.22
62800;BME280;48842;51.046;13.796;2023-08-20T09:15:36;100871.00;;;29.71;52.15
62800;BME280;48842;51.046;13.796;2023-08-20T09:18:02;100874.63;;;29.85;52.00
62800;BME280;48842;51.046;13.796;2023-08-20T09:20:37;100873.44;;;29.89;52.51
62800;BME280;48842;51.046;13.796;2023-08-20T09:23:04;100878.84;;;29.89;52.90
62800;BME280;48842;51.046;13.796;2023-08-20T09:25:29;100886.53;;;29.82;53.64
62800;BME280;48842;51.046;13.796;2023-08-20T09:27:55;100884.50;;;29.71;53.53
62800;BME280;48842;51.046;13.796;2023-08-20T09:30:20;100895.09;;;29.62;54.06
62800;BME280;48842;51.046;13.796;2023-08-20T09:33:02;100892.22;;;29.50;55.07
62800;BME280;48842;51.046;13.796;2023-08-20T09:35:28;100901.81;;;29.41;54.59
62800;BME280;48842;51.046;13.796;2023-08-20T09:38:02;100901.75;;;29.29;54.86
62800;BME280;48842;51.046;13.796;2023-08-20T09:40:28;100906.69;;;29.22;54.94
62800;BME280;48842;51.046;13.796;2023-08-20T09:42:54;100906.09;;;29.17;55.59
62800;BME280;48842;51.046;13.796;2023-08-20T09:45:21;100894.44;;;29.16;56.13
62800;BME280;48842;51.046;13.796;2023-08-20T09:47:48;100906.28;;;29.14;55.89
62800;BME280;48842;51.046;13.796;2023-08-20T09:50:17;100902.81;;;29.12;56.26
62800;BME280;48842;51.046;13.796;2023-08-20T09:52:51;100905.59;;;29.10;55.95
62800;BME280;48842;51.046;13.796;2023-08-20T09:55:21;100916.31;;;29.12;55.97
62800;BME280;48842;51.046;13.796;2023-08-20T09:57:47;100907.03;;;29.16;56.27
62800;BME280;48842;51.046;13.796;2023-08-20T10:00:13;100911.38;;;29.18;55.88
62800;BME280;48842;51.046;13.796;2023-08-20T10:02:43;100905.88;;;29.20;55.67
62800;BME280;48842;51.046;13.796;2023-08-20T10:05:09;100900.38;;;29.21;55.77
62800;BME280;48842;51.046;13.796;2023-08-20T10:07:35;100899.47;;;29.22;55.63
62800;BME280;48842;51.046;13.796;2023-08-20T10:10:03;100903.09;;;29.21;55.53
62800;BME280;48842;51.046;13.796;2023-08-20T10:12:31;100904.25;;;29.17;55.44
62800;BME280;48842;51.046;13.796;2023-08-20T10:14:57;100902.63;;;29.15;55.52
62800;BME280;48842;51.046;13.796;2023-08-20T10:17:25;100899.16;;;29.13;55.15
62800;BME280;48842;51.046;13.796;2023-08-20T10:19:54;100888.16;;;29.16;55.49
62800;BME280;48842;51.046;13.796;2023-08-20T10:22:20;100895.94;;;29.20;55.45
62800;BME280;48842;51.046;13.796;2023-08-20T10:24:52;100885.00;;;29.23;55.54
62800;BME280;48842;51.046;13.796;2023-08-20T10:27:25;100887.41;;;29.28;56.03
62800;BME280;48842;51.046;13.796;2023-08-20T10:29:53;100887.19;;;29.31;55.08
62800;BME280;48842;51.046;13.796;2023-08-20T10:32:18;100879.84;;;29.33;54.98
62800;BME280;48842;51.046;13.796;2023-08-20T10:34:50;100876.94;;;29.36;54.47
62800;BME280;48842;51.046;13.796;2023-08-20T10:37:26;100867.66;;;29.40;54.78
62800;BME280;48842;51.046;13.796;2023-08-20T10:39:55;100860.13;;;29.46;54.93
62800;BME280;48842;51.046;13.796;2023-08-20T10:42:27;100858.75;;;29.53;54.74
62800;BME280;48842;51.046;13.796;2023-08-20T10:44:56;100853.78;;;29.59;54.69
62800;BME280;48842;51.046;13.796;2023-08-20T10:47:22;100854.34;;;29.65;54.41
62800;BME280;48842;51.046;13.796;2023-08-20T10:49:51;100855.22;;;29.65;53.44
62800;BME280;48842;51.046;13.796;2023-08-20T10:52:18;100863.00;;;29.70;52.19
62800;BME280;48842;51.046;13.796;2023-08-20T10:54:44;100858.03;;;29.76;51.94
62800;BME280;48842;51.046;13.796;2023-08-20T10:57:09;100858.22;;;29.88;52.35
62800;BME280;48842;51.046;13.796;2023-08-20T10:59:39;100852.16;;;29.97;52.34
62800;BME280;48842;51.046;13.796;2023-08-20T11:02:09;100853.13;;;30.09;52.12
62800;BME280;48842;51.046;13.796;2023-08-20T11:04:37;100845.25;;;30.19;51.67
62800;BME280;48842;51.046;13.796;2023-08-20T11:07:04;100841.88;;;30.28;50.97
62800;BME280;48842;51.046;13.796;2023-08-20T11:09:30;100846.09;;;30.32;50.67
62800;BME280;48842;51.046;13.796;2023-08-20T11:12:01;100840.25;;;30.38;50.70
62800;BME280;48842;51.046;13.796;2023-08-20T11:14:30;100842.34;;;30.48;50.66
62800;BME280;48842;51.046;13.796;2023-08-20T11:17:14;100836.50;;;30.54;50.57
62800;BME280;48842;51.046;13.796;2023-08-20T11:19:46;100842.41;;;30.59;50.29
62800;BME280;48842;51.046;13.796;2023-08-20T11:22:19;100843.94;;;30.63;49.92
62800;BME280;48842;51.046;13.796;2023-08-20T11:24:54;100839.38;;;30.63;49.93
62800;BME280;48842;51.046;13.796;2023-08-20T11:27:27;100839.38;;;30.63;49.58
62800;BME280;48842;51.046;13.796;2023-08-20T11:30:04;100832.88;;;30.66;49.11
62800;BME280;48842;51.046;13.796;2023-08-20T11:32:39;100832.88;;;30.66;48.72
62800;BME280;48842;51.046;13.796;2023-08-20T11:35:11;100827.47;;;30.66;48.37
62800;BME280;48842;51.046;13.796;2023-08-20T11:37:43;100831.06;;;30.67;48.72
62800;BME280;48842;51.046;13.796;2023-08-20T11:40:09;100832.41;;;30.72;48.66
62800;BME280;48842;51.046;13.796;2023-08-20T11:42:35;100827.00;;;30.72;48.67
62800;BME280;48842;51.046;13.796;2023-08-20T11:45:00;100824.09;;;30.75;48.22
62800;BME280;48842;51.046;13.796;2023-08-20T11:47:25;100820.28;;;30.78;48.07
62800;BME280;48842;51.046;13.796;2023-08-20T11:50:04;100820.06;;;30.81;47.73
62800;BME280;48842;51.046;13.796;2023-08-20T11:52:31;100827.09;;;30.84;47.92
62800;BME280;48842;51.046;13.796;2023-08-20T11:54:57;100820.25;;;30.91;47.77
62800;BME280;48842;51.046;13.796;2023-08-20T11:57:22;100822.84;;;30.92;47.49
62800;BME280;48842;51.046;13.796;2023-08-20T11:59:48;100821.75;;;30.95;46.99
62800;BME280;48842;51.046;13.796;2023-08-20T12:02:13;100815.13;;;30.99;47.10
62800;BME280;48842;51.046;13.796;2023-08-20T12:04:38;100811.28;;;31.03;47.10
62800;BME280;48842;51.046;13.796;2023-08-20T12:07:14;100818.16;;;31.07;46.57
62800;BME280;48842;51.046;13.796;2023-08-20T12:09:40;100818.44;;;31.15;46.14
62800;BME280;48842;51.046;13.796;2023-08-20T12:12:06;100812.06;;;31.17;46.20
62800;BME280;48842;51.046;13.796;2023-08-20T12:14:32;100804.44;;;31.22;46.36
62800;BME280;48842;51.046;13.796;2023-08-20T12:16:57;100799.56;;;31.27;46.45
62800;BME280;48842;51.046;13.796;2023-08-20T12:19:24;100798.34;;;31.31;46.32
62800;BME280;48842;51.046;13.796;2023-08-20T12:21:49;100805.47;;;31.32;45.88
62800;BME280;48842;51.046;13.796;2023-08-20T12:24:14;100797.22;;;31.33;45.80
62800;BME280;48842;51.046;13.796;2023-08-20T12:26:40;100789.97;;;31.34;45.67
62800;BME280;48842;51.046;13.796;2023-08-20T12:29:06;100792.56;;;31.36;45.78
62800;BME280;48842;51.046;13.796;2023-08-20T12:31:32;100796.41;;;31.44;45.71
62800;BME280;48842;51.046;13.796;2023-08-20T12:33:59;100797.69;;;31.52;45.50
62800;BME280;48842;51.046;13.796;2023-08-20T12:36:24;100796.38;;;31.57;45.35
62800;BME280;48842;51.046;13.796;2023-08-20T12:38:50;100789.63;;;31.63;45.09
62800;BME280;48842;51.046;13.796;2023-08-20T12:41:19;100793.06;;;31.65;44.83
62800;BME280;48842;51.046;13.796;2023-08-20T12:43:51;100792.94;;;31.66;44.91
62800;BME280;48842;51.046;13.796;2023-08-20T12:46:22;100787.16;;;31.71;45.29
62800;BME280;48842;51.046;13.796;2023-08-20T12:49:07;100790.13;;;31.79;44.74